Terminal Aerodrome Forecast
Issued by NWS Charleston, SC

Home | Current Version | Previous Version | Text Only | Print | Product List | Glossary On
Versions: 1 2 3 4 5 6 7 8 9 10 11 12 13 14 15 16 17 18
201
FTUS42 KCHS 280520
TAFCHS
TAF
KCHS 280520Z 2806/2906 VRB03KT P6SM BKN200
     FM281400 06009KT P6SM FEW035 BKN150
     FM281800 11012G19KT P6SM SCT040
     FM282300 10006KT P6SM FEW040 SCT200=

USA.gov is the U.S. government's official web portal to all federal, state and local government web resources and services.